sensor_id;sensor_type;location;lat;lon;timestamp;pressure;altitude;pressure_sealevel;temperature;humidity
34500;BME280;20745;50.882;6.962;2022-12-10T00:01:05;100152.28;;;1.24;100.00
34500;BME280;20745;50.882;6.962;2022-12-10T00:03:31;100161.88;;;1.06;100.00
34500;BME280;20745;50.882;6.962;2022-12-10T00:06:01;100163.88;;;1.14;100.00
34500;BME280;20745;50.882;6.962;2022-12-10T00:08:29;100163.06;;;1.23;100.00
34500;BME280;20745;50.882;6.962;2022-12-10T00:10:55;100160.97;;;1.26;100.00
34500;BME280;20745;50.882;6.962;2022-12-10T00:13:22;100163.22;;;1.31;100.00
34500;BME280;20745;50.882;6.962;2022-12-10T00:15:48;100163.19;;;1.21;100.00
34500;BME280;20745;50.882;6.962;2022-12-10T00:18:15;100162.72;;;0.97;100.00
34500;BME280;20745;50.882;6.962;2022-12-10T00:20:41;100162.88;;;1.05;100.00
34500;BME280;20745;50.882;6.962;2022-12-10T00:23:08;100165.00;;;1.11;100.00
34500;BME280;20745;50.882;6.962;2022-12-10T00:25:36;100168.25;;;1.24;100.00
34500;BME280;20745;50.882;6.962;2022-12-10T00:28:02;100166.72;;;1.31;100.00
34500;BME280;20745;50.882;6.962;2022-12-10T00:30:29;100162.41;;;1.30;100.00
34500;BME280;20745;50.882;6.962;2022-12-10T00:32:55;100163.47;;;1.28;100.00
34500;BME280;20745;50.882;6.962;2022-12-10T00:35:25;100164.19;;;1.30;100.00
34500;BME280;20745;50.882;6.962;2022-12-10T00:37:51;100172.59;;;1.25;100.00
34500;BME280;20745;50.882;6.962;2022-12-10T00:40:18;100161.22;;;1.23;100.00
34500;BME280;20745;50.882;6.962;2022-12-10T00:42:44;100171.88;;;1.23;100.00
34500;BME280;20745;50.882;6.962;2022-12-10T00:45:11;100172.44;;;1.17;100.00
34500;BME280;20745;50.882;6.962;2022-12-10T00:47:38;100163.59;;;1.17;100.00
34500;BME280;20745;50.882;6.962;2022-12-10T00:50:05;100160.66;;;1.10;100.00
34500;BME280;20745;50.882;6.962;2022-12-10T00:52:32;100160.78;;;1.09;100.00
34500;BME280;20745;50.882;6.962;2022-12-10T00:54:58;100151.25;;;1.06;100.00
34500;BME280;20745;50.882;6.962;2022-12-10T00:57:25;100156.28;;;1.09;100.00
34500;BME280;20745;50.882;6.962;2022-12-10T00:59:51;100155.63;;;1.07;100.00
34500;BME280;20745;50.882;6.962;2022-12-10T01:02:18;100163.31;;;1.10;100.00
34500;BME280;20745;50.882;6.962;2022-12-10T01:04:44;100164.53;;;1.06;100.00
34500;BME280;20745;50.882;6.962;2022-12-10T01:07:11;100166.66;;;1.03;100.00
34500;BME280;20745;50.882;6.962;2022-12-10T01:09:38;100168.91;;;1.07;100.00
34500;BME280;20745;50.882;6.962;2022-12-10T01:12:05;100171.09;;;1.02;100.00
34500;BME280;20745;50.882;6.962;2022-12-10T01:14:32;100177.00;;;1.06;100.00
34500;BME280;20745;50.882;6.962;2022-12-10T01:17:00;100175.19;;;1.06;100.00
34500;BME280;20745;50.882;6.962;2022-12-10T01:19:29;100178.09;;;1.03;100.00
34500;BME280;20745;50.882;6.962;2022-12-10T01:21:56;100179.53;;;1.07;100.00
34500;BME280;20745;50.882;6.962;2022-12-10T01:24:23;100184.00;;;1.07;100.00
34500;BME280;20745;50.882;6.962;2022-12-10T01:26:50;100184.84;;;1.07;100.00
34500;BME280;20745;50.882;6.962;2022-12-10T01:29:17;100193.63;;;0.98;100.00
34500;BME280;20745;50.882;6.962;2022-12-10T01:31:43;100191.47;;;0.83;100.00
34500;BME280;20745;50.882;6.962;2022-12-10T01:34:11;100196.38;;;0.87;100.00
34500;BME280;20745;50.882;6.962;2022-12-10T01:36:39;100197.81;;;0.91;100.00
34500;BME280;20745;50.882;6.962;2022-12-10T01:39:07;100209.53;;;0.89;100.00
34500;BME280;20745;50.882;6.962;2022-12-10T01:41:35;100203.50;;;0.87;100.00
34500;BME280;20745;50.882;6.962;2022-12-10T01:46:30;100205.78;;;0.91;100.00
34500;BME280;20745;50.882;6.962;2022-12-10T01:48:57;100209.13;;;0.93;100.00
34500;BME280;20745;50.882;6.962;2022-12-10T01:51:26;100213.50;;;0.94;100.00
34500;BME280;20745;50.882;6.962;2022-12-10T01:53:53;100206.66;;;1.01;100.00
34500;BME280;20745;50.882;6.962;2022-12-10T01:56:20;100215.63;;;1.00;100.00
34500;BME280;20745;50.882;6.962;2022-12-10T01:58:48;100209.19;;;1.03;100.00
34500;BME280;20745;50.882;6.962;2022-12-10T02:03:50;100206.81;;;1.09;100.00
34500;BME280;20745;50.882;6.962;2022-12-10T02:06:30;100212.31;;;1.17;100.00
34500;BME280;20745;50.882;6.962;2022-12-10T02:09:12;100209.44;;;1.00;100.00
34500;BME280;20745;50.882;6.962;2022-12-10T02:11:50;100216.66;;;0.88;100.00
34500;BME280;20745;50.882;6.962;2022-12-10T02:14:28;100221.19;;;0.97;100.00
34500;BME280;20745;50.882;6.962;2022-12-10T02:16:57;100184.66;;;0.69;100.00
34500;BME280;20745;50.882;6.962;2022-12-10T02:19:27;100219.94;;;1.01;100.00
34500;BME280;20745;50.882;6.962;2022-12-10T02:21:58;100220.94;;;1.00;100.00
34500;BME280;20745;50.882;6.962;2022-12-10T02:24:27;100226.16;;;0.81;100.00
34500;BME280;20745;50.882;6.962;2022-12-10T02:27:10;100224.72;;;0.77;100.00
34500;BME280;20745;50.882;6.962;2022-12-10T02:29:39;100232.50;;;0.69;100.00
34500;BME280;20745;50.882;6.962;2022-12-10T02:32:07;100228.44;;;0.65;100.00
34500;BME280;20745;50.882;6.962;2022-12-10T02:34:37;100226.81;;;0.74;100.00
34500;BME280;20745;50.882;6.962;2022-12-10T02:37:06;100230.06;;;0.77;100.00
34500;BME280;20745;50.882;6.962;2022-12-10T02:39:35;100217.19;;;0.82;100.00
34500;BME280;20745;50.882;6.962;2022-12-10T02:42:04;100225.38;;;0.90;100.00
34500;BME280;20745;50.882;6.962;2022-12-10T02:44:33;100215.41;;;0.92;100.00
34500;BME280;20745;50.882;6.962;2022-12-10T02:47:02;100221.00;;;0.89;100.00
34500;BME280;20745;50.882;6.962;2022-12-10T02:49:29;100182.00;;;0.69;100.00
34500;BME280;20745;50.882;6.962;2022-12-10T02:51:56;100225.44;;;0.79;100.00
34500;BME280;20745;50.882;6.962;2022-12-10T02:54:39;100215.25;;;0.84;100.00
34500;BME280;20745;50.882;6.962;2022-12-10T03:02:11;100229.25;;;0.86;100.00
34500;BME280;20745;50.882;6.962;2022-12-10T03:04:53;100234.69;;;0.85;100.00
34500;BME280;20745;50.882;6.962;2022-12-10T03:07:25;100233.72;;;0.86;100.00
34500;BME280;20745;50.882;6.962;2022-12-10T03:10:07;100232.88;;;0.85;100.00
34500;BME280;20745;50.882;6.962;2022-12-10T03:12:45;100230.88;;;0.78;100.00
34500;BME280;20745;50.882;6.962;2022-12-10T03:15:14;100231.00;;;0.76;100.00
34500;BME280;20745;50.882;6.962;2022-12-10T03:17:43;100240.56;;;0.79;100.00
34500;BME280;20745;50.882;6.962;2022-12-10T03:20:12;100238.19;;;0.85;100.00
34500;BME280;20745;50.882;6.962;2022-12-10T03:22:40;100240.59;;;0.88;100.00
34500;BME280;20745;50.882;6.962;2022-12-10T03:25:10;100242.00;;;0.92;100.00
34500;BME280;20745;50.882;6.962;2022-12-10T03:27:38;100246.94;;;0.97;100.00
34500;BME280;20745;50.882;6.962;2022-12-10T03:30:05;100245.13;;;0.97;100.00
34500;BME280;20745;50.882;6.962;2022-12-10T03:32:32;100235.25;;;1.09;100.00
34500;BME280;20745;50.882;6.962;2022-12-10T03:34:59;100229.50;;;1.13;100.00
34500;BME280;20745;50.882;6.962;2022-12-10T03:37:26;100228.63;;;1.03;100.00
34500;BME280;20745;50.882;6.962;2022-12-10T03:39:54;100230.38;;;0.93;100.00
34500;BME280;20745;50.882;6.962;2022-12-10T03:42:21;100234.66;;;1.05;100.00
34500;BME280;20745;50.882;6.962;2022-12-10T03:44:49;100241.91;;;1.03;100.00
34500;BME280;20745;50.882;6.962;2022-12-10T03:47:15;100238.03;;;1.07;100.00
34500;BME280;20745;50.882;6.962;2022-12-10T03:49:42;100239.06;;;1.16;100.00
34500;BME280;20745;50.882;6.962;2022-12-10T03:52:09;100240.59;;;1.18;100.00
34500;BME280;20745;50.882;6.962;2022-12-10T03:54:36;100250.25;;;1.19;100.00
34500;BME280;20745;50.882;6.962;2022-12-10T03:57:02;100243.41;;;1.26;100.00
34500;BME280;20745;50.882;6.962;2022-12-10T03:59:29;100243.16;;;1.29;100.00
34500;BME280;20745;50.882;6.962;2022-12-10T04:01:55;100242.88;;;1.32;100.00
34500;BME280;20745;50.882;6.962;2022-12-10T04:04:22;100247.94;;;1.35;100.00
34500;BME280;20745;50.882;6.962;2022-12-10T04:06:48;100251.59;;;1.34;100.00
34500;BME280;20745;50.882;6.962;2022-12-10T04:09:15;100247.06;;;1.25;100.00
34500;BME280;20745;50.882;6.962;2022-12-10T04:11:42;100251.22;;;1.18;100.00
34500;BME280;20745;50.882;6.962;2022-12-10T04:14:08;100261.78;;;1.29;100.00
34500;BME280;20745;50.882;6.962;2022-12-10T04:16:54;100260.31;;;1.16;100.00
34500;BME280;20745;50.882;6.962;2022-12-10T04:19:20;100262.97;;;1.16;100.00
34500;BME280;20745;50.882;6.962;2022-12-10T04:21:47;100263.69;;;1.18;100.00
34500;BME280;20745;50.882;6.962;2022-12-10T04:24:33;100257.41;;;1.19;100.00
34500;BME280;20745;50.882;6.962;2022-12-10T04:27:26;100265.69;;;1.25;100.00
34500;BME280;20745;50.882;6.962;2022-12-10T04:29:54;100265.94;;;1.22;100.00
34500;BME280;20745;50.882;6.962;2022-12-10T04:32:22;100264.81;;;1.25;100.00
34500;BME280;20745;50.882;6.962;2022-12-10T04:34:49;100266.41;;;1.27;100.00
34500;BME280;20745;50.882;6.962;2022-12-10T04:37:16;100268.03;;;1.19;100.00
34500;BME280;20745;50.882;6.962;2022-12-10T04:39:43;100270.28;;;1.23;100.00
34500;BME280;20745;50.882;6.962;2022-12-10T04:42:09;100275.47;;;1.25;100.00
34500;BME280;20745;50.882;6.962;2022-12-10T04:44:36;100275.56;;;1.14;100.00
34500;BME280;20745;50.882;6.962;2022-12-10T04:47:03;100269.72;;;1.20;100.00
34500;BME280;20745;50.882;6.962;2022-12-10T04:49:30;100272.25;;;1.21;100.00
34500;BME280;20745;50.882;6.962;2022-12-10T04:51:57;100268.34;;;1.25;100.00
34500;BME280;20745;50.882;6.962;2022-12-10T04:54:23;100268.34;;;1.25;100.00
34500;BME280;20745;50.882;6.962;2022-12-10T04:56:50;100264.94;;;1.23;100.00
34500;BME280;20745;50.882;6.962;2022-12-10T04:59:17;100265.41;;;1.28;100.00
34500;BME280;20745;50.882;6.962;2022-12-10T05:01:43;100261.06;;;1.27;100.00
34500;BME280;20745;50.882;6.962;2022-12-10T05:04:11;100263.00;;;1.25;100.00
34500;BME280;20745;50.882;6.962;2022-12-10T05:06:38;100255.88;;;1.26;100.00
34500;BME280;20745;50.882;6.962;2022-12-10T05:09:04;100264.44;;;1.29;100.00
34500;BME280;20745;50.882;6.962;2022-12-10T05:11:32;100265.53;;;1.27;100.00
34500;BME280;20745;50.882;6.962;2022-12-10T05:13:59;100266.66;;;1.24;100.00
34500;BME280;20745;50.882;6.962;2022-12-10T05:16:27;100267.53;;;1.34;100.00
34500;BME280;20745;50.882;6.962;2022-12-10T05:18:54;100262.09;;;1.36;100.00
34500;BME280;20745;50.882;6.962;2022-12-10T05:21:21;100260.81;;;1.30;100.00
34500;BME280;20745;50.882;6.962;2022-12-10T05:23:49;100269.22;;;1.35;100.00
34500;BME280;20745;50.882;6.962;2022-12-10T05:26:21;100267.44;;;1.45;100.00
34500;BME280;20745;50.882;6.962;2022-12-10T05:28:49;100261.13;;;1.46;100.00
34500;BME280;20745;50.882;6.962;2022-12-10T05:33:43;100264.97;;;1.53;100.00
34500;BME280;20745;50.882;6.962;2022-12-10T05:36:10;100260.91;;;1.59;100.00
34500;BME280;20745;50.882;6.962;2022-12-10T05:38:38;100264.53;;;1.58;100.00
34500;BME280;20745;50.882;6.962;2022-12-10T05:41:15;100265.38;;;1.58;100.00
34500;BME280;20745;50.882;6.962;2022-12-10T05:43:42;100268.56;;;1.52;100.00
34500;BME280;20745;50.882;6.962;2022-12-10T05:46:14;100262.84;;;1.57;100.00
34500;BME280;20745;50.882;6.962;2022-12-10T05:48:40;100262.56;;;1.50;100.00
34500;BME280;20745;50.882;6.962;2022-12-10T05:51:11;100264.63;;;1.47;100.00
34500;BME280;20745;50.882;6.962;2022-12-10T05:53:38;100267.03;;;1.50;100.00
34500;BME280;20745;50.882;6.962;2022-12-10T05:56:06;100277.97;;;1.56;100.00
34500;BME280;20745;50.882;6.962;2022-12-10T05:58:33;100279.81;;;1.65;100.00
34500;BME280;20745;50.882;6.962;2022-12-10T06:01:00;100278.56;;;1.69;100.00
34500;BME280;20745;50.882;6.962;2022-12-10T06:03:27;100279.28;;;1.71;100.00
34500;BME280;20745;50.882;6.962;2022-12-10T06:05:53;100279.84;;;1.75;100.00
34500;BME280;20745;50.882;6.962;2022-12-10T06:08:20;100286.00;;;1.75;100.00
34500;BME280;20745;50.882;6.962;2022-12-10T06:10:46;100287.56;;;1.78;100.00
34500;BME280;20745;50.882;6.962;2022-12-10T06:13:13;100285.16;;;1.75;100.00
34500;BME280;20745;50.882;6.962;2022-12-10T06:15:40;100286.00;;;1.75;100.00
34500;BME280;20745;50.882;6.962;2022-12-10T06:18:07;100283.09;;;1.78;100.00
34500;BME280;20745;50.882;6.962;2022-12-10T06:20:33;100290.94;;;1.80;100.00
34500;BME280;20745;50.882;6.962;2022-12-10T06:23:00;100284.88;;;1.78;100.00
34500;BME280;20745;50.882;6.962;2022-12-10T06:25:27;100292.34;;;1.84;100.00
34500;BME280;20745;50.882;6.962;2022-12-10T06:27:53;100284.06;;;1.77;100.00
34500;BME280;20745;50.882;6.962;2022-12-10T06:30:19;100290.66;;;1.73;100.00
34500;BME280;20745;50.882;6.962;2022-12-10T06:32:46;100286.88;;;1.76;100.00
34500;BME280;20745;50.882;6.962;2022-12-10T06:35:15;100283.94;;;1.79;100.00
34500;BME280;20745;50.882;6.962;2022-12-10T06:37:41;100290.66;;;1.83;100.00
34500;BME280;20745;50.882;6.962;2022-12-10T06:40:08;100288.84;;;1.83;100.00
34500;BME280;20745;50.882;6.962;2022-12-10T06:42:34;100300.84;;;1.78;100.00
34500;BME280;20745;50.882;6.962;2022-12-10T06:45:01;100303.25;;;1.81;100.00
34500;BME280;20745;50.882;6.962;2022-12-10T06:47:27;100299.31;;;1.75;100.00
34500;BME280;20745;50.882;6.962;2022-12-10T06:49:54;100303.25;;;1.81;100.00
34500;BME280;20745;50.882;6.962;2022-12-10T06:52:20;100306.31;;;1.76;100.00
34500;BME280;20745;50.882;6.962;2022-12-10T06:54:47;100305.19;;;1.69;100.00
34500;BME280;20745;50.882;6.962;2022-12-10T06:57:13;100299.59;;;1.72;100.00
34500;BME280;20745;50.882;6.962;2022-12-10T06:59:40;100243.16;;;1.29;100.00
34500;BME280;20745;50.882;6.962;2022-12-10T07:02:08;100324.41;;;1.73;100.00
34500;BME280;20745;50.882;6.962;2022-12-10T07:04:35;100320.63;;;1.75;100.00
34500;BME280;20745;50.882;6.962;2022-12-10T07:07:02;100320.34;;;1.78;100.00
34500;BME280;20745;50.882;6.962;2022-12-10T07:09:34;100329.13;;;1.69;100.00
34500;BME280;20745;50.882;6.962;2022-12-10T07:12:01;100333.25;;;1.73;100.00
34500;BME280;20745;50.882;6.962;2022-12-10T07:14:27;100331.00;;;1.78;100.00
34500;BME280;20745;50.882;6.962;2022-12-10T07:16:54;100329.31;;;1.77;100.00
34500;BME280;20745;50.882;6.962;2022-12-10T07:19:20;100331.84;;;1.79;100.00
34500;BME280;20745;50.882;6.962;2022-12-10T07:21:47;100339.69;;;1.80;100.00
34500;BME280;20745;50.882;6.962;2022-12-10T07:24:14;100341.09;;;1.84;100.00
34500;BME280;20745;50.882;6.962;2022-12-10T07:26:42;100342.50;;;1.88;100.00
34500;BME280;20745;50.882;6.962;2022-12-10T07:29:11;100341.09;;;1.84;100.00
34500;BME280;20745;50.882;6.962;2022-12-10T07:31:38;100340.25;;;1.84;100.00
34500;BME280;20745;50.882;6.962;2022-12-10T07:36:38;100345.97;;;1.79;100.00
34500;BME280;20745;50.882;6.962;2022-12-10T07:39:06;100352.75;;;1.83;100.00
34500;BME280;20745;50.882;6.962;2022-12-10T07:41:33;100357.63;;;1.78;100.00
34500;BME280;20745;50.882;6.962;2022-12-10T07:44:00;100351.91;;;1.83;100.00
34500;BME280;20745;50.882;6.962;2022-12-10T07:46:28;100354.56;;;1.83;100.00
34500;BME280;20745;50.882;6.962;2022-12-10T07:48:54;100354.16;;;1.87;100.00
34500;BME280;20745;50.882;6.962;2022-12-10T07:51:23;100357.78;;;1.86;100.00
34500;BME280;20745;50.882;6.962;2022-12-10T07:53:53;100362.97;;;1.88;100.00
34500;BME280;20745;50.882;6.962;2022-12-10T07:56:20;100357.81;;;1.96;100.00
34500;BME280;20745;50.882;6.962;2022-12-10T07:58:48;100364.28;;;1.93;100.00
34500;BME280;20745;50.882;6.962;2022-12-10T08:01:17;100367.63;;;1.95;100.00
34500;BME280;20745;50.882;6.962;2022-12-10T08:03:49;100363.00;;;1.97;100.00
34500;BME280;20745;50.882;6.962;2022-12-10T08:06:17;100365.69;;;1.97;100.00
34500;BME280;20745;50.882;6.962;2022-12-10T08:08:44;100370.00;;;1.98;100.00
34500;BME280;20745;50.882;6.962;2022-12-10T08:11:11;100370.47;;;2.03;100.00
34500;BME280;20745;50.882;6.962;2022-12-10T08:13:38;100369.47;;;2.04;100.00
34500;BME280;20745;50.882;6.962;2022-12-10T08:18:32;100383.47;;;2.06;100.00
34500;BME280;20745;50.882;6.962;2022-12-10T08:21:03;100382.53;;;2.17;100.00
34500;BME280;20745;50.882;6.962;2022-12-10T08:23:30;100391.38;;;2.17;100.00
34500;BME280;20745;50.882;6.962;2022-12-10T08:25:56;100390.25;;;2.10;100.00
34500;BME280;20745;50.882;6.962;2022-12-10T08:28:23;100391.31;;;1.98;100.00
34500;BME280;20745;50.882;6.962;2022-12-10T08:30:49;100395.78;;;1.98;100.00
34500;BME280;20745;50.882;6.962;2022-12-10T08:33:16;100391.25;;;2.19;100.00
34500;BME280;20745;50.882;6.962;2022-12-10T08:35:42;100397.66;;;2.16;100.00
34500;BME280;20745;50.882;6.962;2022-12-10T08:38:09;100404.31;;;2.22;100.00
34500;BME280;20745;50.882;6.962;2022-12-10T08:40:38;100400.94;;;2.29;100.00
34500;BME280;20745;50.882;6.962;2022-12-10T08:43:05;100395.34;;;2.32;100.00
34500;BME280;20745;50.882;6.962;2022-12-10T09:37:31;100418.66;;;2.49;100.00
34500;BME280;20745;50.882;6.962;2022-12-10T09:39:58;100427.81;;;2.57;100.00
34500;BME280;20745;50.882;6.962;2022-12-10T09:42:37;100424.28;;;2.56;100.00
34500;BME280;20745;50.882;6.962;2022-12-10T09:45:14;100423.44;;;2.55;100.00
34500;BME280;20745;50.882;6.962;2022-12-10T09:47:53;100421.47;;;2.58;100.00
34500;BME280;20745;50.882;6.962;2022-12-10T09:50:23;100419.81;;;2.57;100.00
34500;BME280;20745;50.882;6.962;2022-12-10T09:52:52;100431.56;;;2.44;100.00
34500;BME280;20745;50.882;6.962;2022-12-10T09:57:59;100425.84;;;2.78;100.00
34500;BME280;20745;50.882;6.962;2022-12-10T10:00:38;100427.53;;;2.88;100.00
34500;BME280;20745;50.882;6.962;2022-12-10T10:03:05;100426.25;;;2.83;100.00
34500;BME280;20745;50.882;6.962;2022-12-10T10:05:35;100438.91;;;2.81;100.00
34500;BME280;20745;50.882;6.962;2022-12-10T10:08:06;100437.66;;;2.85;100.00
34500;BME280;20745;50.882;6.962;2022-12-10T10:10:39;100432.59;;;2.82;100.00
34500;BME280;20745;50.882;6.962;2022-12-10T10:15:51;100434.69;;;2.88;100.00
34500;BME280;20745;50.882;6.962;2022-12-10T10:20:44;100439.63;;;3.02;100.00
34500;BME280;20745;50.882;6.962;2022-12-10T10:23:12;100445.66;;;3.13;100.00
34500;BME280;20745;50.882;6.962;2022-12-10T10:25:39;100434.41;;;3.00;100.00
34500;BME280;20745;50.882;6.962;2022-12-10T10:28:07;100438.91;;;3.09;100.00
34500;BME280;20745;50.882;6.962;2022-12-10T10:30:36;100434.13;;;3.13;100.00
34500;BME280;20745;50.882;6.962;2022-12-10T10:33:07;100427.22;;;3.20;100.00
34500;BME280;20745;50.882;6.962;2022-12-10T10:35:40;100425.53;;;3.38;100.00
34500;BME280;20745;50.882;6.962;2022-12-10T10:38:13;100423.00;;;3.46;100.00
34500;BME280;20745;50.882;6.962;2022-12-10T10:40:44;100422.44;;;3.42;100.00
34500;BME280;20745;50.882;6.962;2022-12-10T10:43:17;100422.06;;;3.28;100.00
34500;BME280;20745;50.882;6.962;2022-12-10T10:45:51;100429.91;;;3.29;100.00
34500;BME280;20745;50.882;6.962;2022-12-10T10:48:23;100423.72;;;3.29;100.00
34500;BME280;20745;50.882;6.962;2022-12-10T10:51:05;100422.16;;;3.36;100.00
34500;BME280;20745;50.882;6.962;2022-12-10T10:53:35;100415.25;;;3.43;100.00
34500;BME280;20745;50.882;6.962;2022-12-10T10:59:00;100433.28;;;3.41;100.00
34500;BME280;20745;50.882;6.962;2022-12-10T11:04:09;100435.22;;;3.39;100.00
34500;BME280;20745;50.882;6.962;2022-12-10T11:06:39;100435.81;;;3.04;100.00
34500;BME280;20745;50.882;6.962;2022-12-10T11:09:06;100435.25;;;3.10;100.00
34500;BME280;20745;50.882;6.962;2022-12-10T11:11:34;100433.25;;;3.31;100.00
34500;BME280;20745;50.882;6.962;2022-12-10T11:16:46;100434.34;;;3.67;100.00
34500;BME280;20745;50.882;6.962;2022-12-10T11:19:20;100426.72;;;3.72;100.00
34500;BME280;20745;50.882;6.962;2022-12-10T11:21:47;100417.72;;;3.73;100.00
34500;BME280;20745;50.882;6.962;2022-12-10T11:24:15;100422.66;;;3.68;100.00
34500;BME280;20745;50.882;6.962;2022-12-10T11:26:55;100426.91;;;3.61;100.00
34500;BME280;20745;50.882;6.962;2022-12-10T11:29:27;100427.19;;;3.58;100.00
34500;BME280;20745;50.882;6.962;2022-12-10T13:06:27;100436.53;;;3.81;100.00
34500;BME280;20745;50.882;6.962;2022-12-10T13:11:45;100440.59;;;3.85;100.00
34500;BME280;20745;50.882;6.962;2022-12-10T13:19:42;100430.44;;;3.98;100.00
34500;BME280;20745;50.882;6.962;2022-12-10T13:48:54;100457.19;;;4.25;100.00
34500;BME280;20745;50.882;6.962;2022-12-10T13:53:57;100456.81;;;4.37;100.00
34500;BME280;20745;50.882;6.962;2022-12-10T13:56:36;100458.13;;;4.33;100.00
34500;BME280;20745;50.882;6.962;2022-12-10T14:01:43;100467.31;;;4.21;100.00
34500;BME280;20745;50.882;6.962;2022-12-10T14:07:01;100467.31;;;4.21;100.00
34500;BME280;20745;50.882;6.962;2022-12-10T14:09:31;100469.44;;;4.18;100.00
34500;BME280;20745;50.882;6.962;2022-12-10T14:12:01;100467.06;;;4.15;100.00
34500;BME280;20745;50.882;6.962;2022-12-10T14:14:30;100468.06;;;4.14;100.00
34500;BME280;20745;50.882;6.962;2022-12-10T14:17:12;100476.56;;;3.90;100.00
34500;BME280;20745;50.882;6.962;2022-12-10T14:19:40;100480.09;;;3.81;100.00
34500;BME280;20745;50.882;6.962;2022-12-10T14:22:08;100482.91;;;3.80;100.00
34500;BME280;20745;50.882;6.962;2022-12-10T14:24:40;100476.44;;;3.92;100.00
34500;BME280;20745;50.882;6.962;2022-12-10T14:27:13;100483.75;;;3.90;100.00
34500;BME280;20745;50.882;6.962;2022-12-10T14:29:57;100480.50;;;3.96;100.00
34500;BME280;20745;50.882;6.962;2022-12-10T14:32:58;100474.31;;;3.95;100.00
34500;BME280;20745;50.882;6.962;2022-12-10T14:35:19;100478.91;;;4.03;100.00
34500;BME280;20745;50.882;6.962;2022-12-10T14:37:51;100481.19;;;3.98;100.00
34500;BME280;20745;50.882;6.962;2022-12-10T14:40:23;100478.09;;;3.93;100.00
34500;BME280;20745;50.882;6.962;2022-12-10T14:42:50;100483.44;;;3.93;100.00
34500;BME280;20745;50.882;6.962;2022-12-10T14:45:19;100488.50;;;3.96;100.00
34500;BME280;20745;50.882;6.962;2022-12-10T14:47:46;100484.72;;;3.89;100.00
34500;BME280;20745;50.882;6.962;2022-12-10T14:50:15;100483.91;;;3.79;100.00
34500;BME280;20745;50.882;6.962;2022-12-10T14:52:43;100484.34;;;3.84;100.00
34500;BME280;20745;50.882;6.962;2022-12-10T14:55:13;100487.84;;;3.84;100.00
34500;BME280;20745;50.882;6.962;2022-12-10T14:57:42;100493.59;;;3.80;100.00
34500;BME280;20745;50.882;6.962;2022-12-10T15:00:15;100496.16;;;3.72;100.00
34500;BME280;20745;50.882;6.962;2022-12-10T15:02:47;100497.97;;;3.81;100.00
34500;BME280;20745;50.882;6.962;2022-12-10T15:05:17;100503.75;;;3.76;100.00
34500;BME280;20745;50.882;6.962;2022-12-10T15:07:53;100497.41;;;3.77;100.00
34500;BME280;20745;50.882;6.962;2022-12-10T15:10:23;100493.91;;;3.77;100.00
34500;BME280;20745;50.882;6.962;2022-12-10T15:12:50;100491.53;;;3.74;100.00
34500;BME280;20745;50.882;6.962;2022-12-10T15:15:22;100488.81;;;3.83;100.00
34500;BME280;20745;50.882;6.962;2022-12-10T15:18:08;100486.19;;;3.74;100.00
34500;BME280;20745;50.882;6.962;2022-12-10T15:20:36;100499.78;;;3.80;100.00
34500;BME280;20745;50.882;6.962;2022-12-10T15:25:49;100499.69;;;3.72;100.00
34500;BME280;20745;50.882;6.962;2022-12-10T15:28:27;100502.06;;;3.75;100.00
34500;BME280;20745;50.882;6.962;2022-12-10T15:30:57;100510.06;;;3.66;100.00
34500;BME280;20745;50.882;6.962;2022-12-10T15:33:42;100510.50;;;3.61;100.00
34500;BME280;20745;50.882;6.962;2022-12-10T15:38:45;100504.75;;;3.66;100.00
34500;BME280;20745;50.882;6.962;2022-12-10T15:41:37;100508.38;;;3.74;100.00
34500;BME280;20745;50.882;6.962;2022-12-10T15:44:17;100505.56;;;3.76;100.00
34500;BME280;20745;50.882;6.962;2022-12-10T15:46:47;100507.56;;;3.74;100.00
34500;BME280;20745;50.882;6.962;2022-12-10T15:49:14;100498.72;;;3.64;100.00
34500;BME280;20745;50.882;6.962;2022-12-10T15:51:42;100510.06;;;3.66;100.00
34500;BME280;20745;50.882;6.962;2022-12-10T15:54:28;100506.88;;;3.62;100.00
34500;BME280;20745;50.882;6.962;2022-12-10T15:57:17;100501.25;;;3.65;100.00
34500;BME280;20745;50.882;6.962;2022-12-10T15:59:45;100512.75;;;3.66;100.00
34500;BME280;20745;50.882;6.962;2022-12-10T16:02:34;100510.22;;;3.64;100.00
34500;BME280;20745;50.882;6.962;2022-12-10T16:05:06;100509.41;;;3.64;100.00
34500;BME280;20745;50.882;6.962;2022-12-10T16:07:50;100517.56;;;3.62;100.00
34500;BME280;20745;50.882;6.962;2022-12-10T16:10:18;100515.31;;;3.58;100.00
34500;BME280;20745;50.882;6.962;2022-12-10T16:12:46;100514.19;;;3.51;100.00
34500;BME280;20745;50.882;6.962;2022-12-10T16:15:19;100517.81;;;3.50;100.00
34500;BME280;20745;50.882;6.962;2022-12-10T16:17:46;100518.97;;;3.38;100.00
34500;BME280;20745;50.882;6.962;2022-12-10T16:22:39;100520.78;;;3.28;100.00
34500;BME280;20745;50.882;6.962;2022-12-10T16:25:06;100522.50;;;3.38;100.00
34500;BME280;20745;50.882;6.962;2022-12-10T16:27:33;100524.03;;;3.41;100.00
34500;BME280;20745;50.882;6.962;2022-12-10T16:30:10;100524.72;;;3.43;100.00
34500;BME280;20745;50.882;6.962;2022-12-10T16:32:38;100522.63;;;3.46;100.00
34500;BME280;20745;50.882;6.962;2022-12-10T16:35:04;100522.88;;;3.53;100.00
34500;BME280;20745;50.882;6.962;2022-12-10T16:37:30;100522.47;;;3.48;100.00
34500;BME280;20745;50.882;6.962;2022-12-10T16:39:57;100519.22;;;3.44;100.00
34500;BME280;20745;50.882;6.962;2022-12-10T16:42:32;100516.69;;;3.43;100.00
34500;BME280;20745;50.882;6.962;2022-12-10T16:44:58;100522.88;;;3.53;100.00
34500;BME280;20745;50.882;6.962;2022-12-10T16:47:33;100520.22;;;3.53;100.00
34500;BME280;20745;50.882;6.962;2022-12-10T16:50:00;100519.66;;;3.59;100.00
34500;BME280;20745;50.882;6.962;2022-12-10T16:52:26;100519.50;;;3.60;100.00